South Walden, Vermont
Current Conditions -  °F | °C
As of 10:54 AM on Thursday 30 Oct 2014 (Local Time) from KMVL Reporting Station
Broken Clouds Broken Clouds  
Wind Chill: 41°   Ceiling: 3500
Heat Index: 46°   Visibility: 10mi
Dew Point: 35°   Wind: 9mph
Humidity: 66%   Direction: 300°WNW
Pressure: 29.96"   Gusts: NA
Location:  44.5213°N, 72.3604°W
Report Text: KMVL 301454Z AUTO 30008KT 10SM BKN035 08/02 A2996 RMK AO2 SLP150 60001 T00780017 51014
Loading
Personal Weather Stations






























Interactive Weather Map
Tropical Storm Tracking
New forecast layout! Learn more

10-Day Weather Forecast

Advertisements
Track Severe Weather on mobile